sensor_id;sensor_type;location;lat;lon;timestamp;P1;durP1;ratioP1;P2;durP2;ratioP2
5225;SDS011;2632;51.666;7.146;2024-01-30T00:01:55;15.50;;;8.60;;
5225;SDS011;2632;51.666;7.146;2024-01-30T00:04:22;16.77;;;9.10;;
5225;SDS011;2632;51.666;7.146;2024-01-30T00:06:48;16.07;;;9.83;;
5225;SDS011;2632;51.666;7.146;2024-01-30T00:09:16;16.30;;;9.73;;
5225;SDS011;2632;51.666;7.146;2024-01-30T00:11:43;15.20;;;9.27;;
5225;SDS011;2632;51.666;7.146;2024-01-30T00:14:09;16.60;;;9.83;;
5225;SDS011;2632;51.666;7.146;2024-01-30T00:16:36;15.10;;;10.07;;
5225;SDS011;2632;51.666;7.146;2024-01-30T00:19:03;17.20;;;10.07;;
5225;SDS011;2632;51.666;7.146;2024-01-30T00:21:30;13.87;;;9.43;;
5225;SDS011;2632;51.666;7.146;2024-01-30T00:23:56;15.83;;;9.90;;
5225;SDS011;2632;51.666;7.146;2024-01-30T00:26:23;22.20;;;10.77;;
5225;SDS011;2632;51.666;7.146;2024-01-30T00:28:50;16.47;;;10.30;;
5225;SDS011;2632;51.666;7.146;2024-01-30T00:31:16;14.67;;;10.03;;
5225;SDS011;2632;51.666;7.146;2024-01-30T00:33:43;18.90;;;9.97;;
5225;SDS011;2632;51.666;7.146;2024-01-30T00:36:10;13.80;;;9.47;;
5225;SDS011;2632;51.666;7.146;2024-01-30T00:38:37;18.27;;;9.87;;
5225;SDS011;2632;51.666;7.146;2024-01-30T00:41:03;13.70;;;9.10;;
5225;SDS011;2632;51.666;7.146;2024-01-30T00:43:30;16.20;;;9.70;;
5225;SDS011;2632;51.666;7.146;2024-01-30T00:45:58;17.03;;;9.70;;
5225;SDS011;2632;51.666;7.146;2024-01-30T00:48:25;18.33;;;10.63;;
5225;SDS011;2632;51.666;7.146;2024-01-30T00:50:52;17.23;;;10.03;;
5225;SDS011;2632;51.666;7.146;2024-01-30T00:53:18;15.50;;;9.47;;
5225;SDS011;2632;51.666;7.146;2024-01-30T00:55:45;19.20;;;10.43;;
5225;SDS011;2632;51.666;7.146;2024-01-30T00:58:12;21.47;;;10.50;;
5225;SDS011;2632;51.666;7.146;2024-01-30T01:00:39;16.67;;;10.37;;
5225;SDS011;2632;51.666;7.146;2024-01-30T01:03:06;16.53;;;10.30;;
5225;SDS011;2632;51.666;7.146;2024-01-30T01:05:32;15.03;;;10.00;;
5225;SDS011;2632;51.666;7.146;2024-01-30T01:07:59;17.77;;;10.47;;
5225;SDS011;2632;51.666;7.146;2024-01-30T01:10:26;19.50;;;9.63;;
5225;SDS011;2632;51.666;7.146;2024-01-30T01:12:53;15.87;;;10.90;;
5225;SDS011;2632;51.666;7.146;2024-01-30T01:15:20;15.47;;;9.30;;
5225;SDS011;2632;51.666;7.146;2024-01-30T01:17:47;14.47;;;8.70;;
5225;SDS011;2632;51.666;7.146;2024-01-30T01:20:13;14.80;;;9.00;;
5225;SDS011;2632;51.666;7.146;2024-01-30T01:22:40;14.90;;;9.80;;
5225;SDS011;2632;51.666;7.146;2024-01-30T01:25:08;23.00;;;10.80;;
5225;SDS011;2632;51.666;7.146;2024-01-30T01:27:35;18.00;;;10.30;;
5225;SDS011;2632;51.666;7.146;2024-01-30T01:30:09;17.00;;;9.50;;
5225;SDS011;2632;51.666;7.146;2024-01-30T01:32:37;19.03;;;10.83;;
5225;SDS011;2632;51.666;7.146;2024-01-30T01:35:04;14.67;;;9.10;;
5225;SDS011;2632;51.666;7.146;2024-01-30T01:37:34;14.57;;;9.43;;
5225;SDS011;2632;51.666;7.146;2024-01-30T01:40:00;16.00;;;10.60;;
5225;SDS011;2632;51.666;7.146;2024-01-30T01:42:27;20.20;;;10.97;;
5225;SDS011;2632;51.666;7.146;2024-01-30T01:44:54;12.53;;;8.60;;
5225;SDS011;2632;51.666;7.146;2024-01-30T01:47:20;17.93;;;10.37;;
5225;SDS011;2632;51.666;7.146;2024-01-30T01:49:47;15.83;;;9.13;;
5225;SDS011;2632;51.666;7.146;2024-01-30T01:52:14;18.07;;;10.80;;
5225;SDS011;2632;51.666;7.146;2024-01-30T01:54:41;18.50;;;10.90;;
5225;SDS011;2632;51.666;7.146;2024-01-30T01:57:08;18.53;;;11.57;;
5225;SDS011;2632;51.666;7.146;2024-01-30T01:59:35;15.30;;;9.10;;
5225;SDS011;2632;51.666;7.146;2024-01-30T02:02:02;18.33;;;10.97;;
5225;SDS011;2632;51.666;7.146;2024-01-30T02:04:30;19.40;;;10.30;;
5225;SDS011;2632;51.666;7.146;2024-01-30T02:06:57;16.63;;;10.17;;
5225;SDS011;2632;51.666;7.146;2024-01-30T02:09:24;17.60;;;10.50;;
5225;SDS011;2632;51.666;7.146;2024-01-30T02:11:50;16.77;;;9.90;;
5225;SDS011;2632;51.666;7.146;2024-01-30T02:14:17;20.60;;;10.93;;
5225;SDS011;2632;51.666;7.146;2024-01-30T02:16:44;17.67;;;10.13;;
5225;SDS011;2632;51.666;7.146;2024-01-30T02:19:10;20.40;;;10.03;;
5225;SDS011;2632;51.666;7.146;2024-01-30T02:21:37;17.60;;;10.20;;
5225;SDS011;2632;51.666;7.146;2024-01-30T02:24:05;16.10;;;9.90;;
5225;SDS011;2632;51.666;7.146;2024-01-30T02:26:32;17.83;;;9.63;;
5225;SDS011;2632;51.666;7.146;2024-01-30T02:28:58;19.40;;;12.03;;
5225;SDS011;2632;51.666;7.146;2024-01-30T02:31:25;16.70;;;10.30;;
5225;SDS011;2632;51.666;7.146;2024-01-30T02:33:52;16.80;;;9.97;;
5225;SDS011;2632;51.666;7.146;2024-01-30T02:36:19;16.87;;;9.23;;
5225;SDS011;2632;51.666;7.146;2024-01-30T02:38:46;20.83;;;10.90;;
5225;SDS011;2632;51.666;7.146;2024-01-30T02:41:13;17.93;;;9.60;;
5225;SDS011;2632;51.666;7.146;2024-01-30T02:43:40;16.30;;;9.73;;
5225;SDS011;2632;51.666;7.146;2024-01-30T02:46:06;15.50;;;9.60;;
5225;SDS011;2632;51.666;7.146;2024-01-30T02:48:33;21.10;;;10.67;;
5225;SDS011;2632;51.666;7.146;2024-01-30T02:51:00;19.20;;;10.33;;
5225;SDS011;2632;51.666;7.146;2024-01-30T02:53:27;16.00;;;10.10;;
5225;SDS011;2632;51.666;7.146;2024-01-30T02:55:53;19.67;;;9.80;;
5225;SDS011;2632;51.666;7.146;2024-01-30T02:58:20;17.27;;;10.23;;
5225;SDS011;2632;51.666;7.146;2024-01-30T03:00:47;18.30;;;10.57;;
5225;SDS011;2632;51.666;7.146;2024-01-30T03:03:13;16.93;;;10.30;;
5225;SDS011;2632;51.666;7.146;2024-01-30T03:05:40;20.33;;;10.67;;
5225;SDS011;2632;51.666;7.146;2024-01-30T03:08:07;18.27;;;10.97;;
5225;SDS011;2632;51.666;7.146;2024-01-30T03:10:34;16.23;;;10.03;;
5225;SDS011;2632;51.666;7.146;2024-01-30T03:13:00;18.77;;;9.73;;
5225;SDS011;2632;51.666;7.146;2024-01-30T03:15:27;17.53;;;10.27;;
5225;SDS011;2632;51.666;7.146;2024-01-30T03:17:54;17.27;;;10.07;;
5225;SDS011;2632;51.666;7.146;2024-01-30T03:20:21;20.27;;;10.70;;
5225;SDS011;2632;51.666;7.146;2024-01-30T03:22:48;18.30;;;10.40;;
5225;SDS011;2632;51.666;7.146;2024-01-30T03:25:14;19.90;;;10.60;;
5225;SDS011;2632;51.666;7.146;2024-01-30T03:27:41;19.33;;;11.03;;
5225;SDS011;2632;51.666;7.146;2024-01-30T03:30:08;16.43;;;10.27;;
5225;SDS011;2632;51.666;7.146;2024-01-30T03:32:35;19.10;;;10.40;;
5225;SDS011;2632;51.666;7.146;2024-01-30T03:35:02;20.60;;;11.07;;
5225;SDS011;2632;51.666;7.146;2024-01-30T03:37:29;16.53;;;10.40;;
5225;SDS011;2632;51.666;7.146;2024-01-30T03:39:56;20.50;;;10.30;;
5225;SDS011;2632;51.666;7.146;2024-01-30T03:42:23;19.43;;;10.90;;
5225;SDS011;2632;51.666;7.146;2024-01-30T03:44:49;18.43;;;9.97;;
5225;SDS011;2632;51.666;7.146;2024-01-30T03:47:19;17.90;;;10.27;;
5225;SDS011;2632;51.666;7.146;2024-01-30T03:49:46;18.13;;;11.03;;
5225;SDS011;2632;51.666;7.146;2024-01-30T03:52:13;20.50;;;10.23;;
5225;SDS011;2632;51.666;7.146;2024-01-30T03:54:40;22.20;;;10.20;;
5225;SDS011;2632;51.666;7.146;2024-01-30T03:57:07;20.60;;;10.77;;
5225;SDS011;2632;51.666;7.146;2024-01-30T03:59:34;20.27;;;10.60;;
5225;SDS011;2632;51.666;7.146;2024-01-30T04:02:00;17.73;;;10.13;;
5225;SDS011;2632;51.666;7.146;2024-01-30T04:04:27;16.53;;;9.63;;
5225;SDS011;2632;51.666;7.146;2024-01-30T04:06:54;20.23;;;11.37;;
5225;SDS011;2632;51.666;7.146;2024-01-30T04:09:21;16.23;;;10.10;;
5225;SDS011;2632;51.666;7.146;2024-01-30T04:11:47;16.27;;;10.30;;
5225;SDS011;2632;51.666;7.146;2024-01-30T04:14:14;15.50;;;9.77;;
5225;SDS011;2632;51.666;7.146;2024-01-30T04:16:41;15.83;;;9.90;;
5225;SDS011;2632;51.666;7.146;2024-01-30T04:19:07;15.70;;;9.20;;
5225;SDS011;2632;51.666;7.146;2024-01-30T04:21:34;15.90;;;9.83;;
5225;SDS011;2632;51.666;7.146;2024-01-30T04:24:01;16.37;;;10.23;;
5225;SDS011;2632;51.666;7.146;2024-01-30T04:26:27;19.20;;;10.60;;
5225;SDS011;2632;51.666;7.146;2024-01-30T04:28:54;18.03;;;10.57;;
5225;SDS011;2632;51.666;7.146;2024-01-30T04:31:21;18.43;;;9.90;;
5225;SDS011;2632;51.666;7.146;2024-01-30T04:33:47;17.43;;;10.43;;
5225;SDS011;2632;51.666;7.146;2024-01-30T04:36:14;19.07;;;11.50;;
5225;SDS011;2632;51.666;7.146;2024-01-30T04:38:41;15.33;;;9.67;;
5225;SDS011;2632;51.666;7.146;2024-01-30T04:41:07;18.60;;;10.60;;
5225;SDS011;2632;51.666;7.146;2024-01-30T04:43:34;18.47;;;11.40;;
5225;SDS011;2632;51.666;7.146;2024-01-30T04:46:01;21.83;;;10.03;;
5225;SDS011;2632;51.666;7.146;2024-01-30T04:48:28;18.13;;;9.33;;
5225;SDS011;2632;51.666;7.146;2024-01-30T04:50:54;14.57;;;9.43;;
5225;SDS011;2632;51.666;7.146;2024-01-30T04:53:22;18.23;;;10.97;;
5225;SDS011;2632;51.666;7.146;2024-01-30T04:55:49;15.70;;;9.80;;
5225;SDS011;2632;51.666;7.146;2024-01-30T04:58:15;18.53;;;9.50;;
5225;SDS011;2632;51.666;7.146;2024-01-30T05:00:42;16.00;;;10.07;;
5225;SDS011;2632;51.666;7.146;2024-01-30T05:03:09;19.33;;;10.70;;
5225;SDS011;2632;51.666;7.146;2024-01-30T05:05:36;16.10;;;10.40;;
5225;SDS011;2632;51.666;7.146;2024-01-30T05:08:03;19.53;;;9.70;;
5225;SDS011;2632;51.666;7.146;2024-01-30T05:10:30;18.73;;;9.33;;
5225;SDS011;2632;51.666;7.146;2024-01-30T05:12:57;21.13;;;10.60;;
5225;SDS011;2632;51.666;7.146;2024-01-30T05:15:24;14.80;;;9.53;;
5225;SDS011;2632;51.666;7.146;2024-01-30T05:17:50;14.13;;;9.77;;
5225;SDS011;2632;51.666;7.146;2024-01-30T05:20:18;16.83;;;10.00;;
5225;SDS011;2632;51.666;7.146;2024-01-30T05:22:45;16.87;;;9.97;;
5225;SDS011;2632;51.666;7.146;2024-01-30T05:25:12;15.30;;;10.10;;
5225;SDS011;2632;51.666;7.146;2024-01-30T05:27:39;15.50;;;9.40;;
5225;SDS011;2632;51.666;7.146;2024-01-30T05:30:06;18.00;;;9.97;;
5225;SDS011;2632;51.666;7.146;2024-01-30T05:32:34;15.13;;;8.83;;
5225;SDS011;2632;51.666;7.146;2024-01-30T05:35:00;17.07;;;10.00;;
5225;SDS011;2632;51.666;7.146;2024-01-30T05:37:28;16.80;;;9.80;;
5225;SDS011;2632;51.666;7.146;2024-01-30T05:39:54;18.80;;;10.70;;
5225;SDS011;2632;51.666;7.146;2024-01-30T05:42:21;15.83;;;9.03;;
5225;SDS011;2632;51.666;7.146;2024-01-30T05:44:48;14.00;;;8.87;;
5225;SDS011;2632;51.666;7.146;2024-01-30T05:47:15;16.33;;;10.00;;
5225;SDS011;2632;51.666;7.146;2024-01-30T05:49:42;16.73;;;9.77;;
5225;SDS011;2632;51.666;7.146;2024-01-30T05:52:08;18.43;;;9.90;;
5225;SDS011;2632;51.666;7.146;2024-01-30T05:54:36;19.20;;;9.33;;
5225;SDS011;2632;51.666;7.146;2024-01-30T05:57:02;19.47;;;11.40;;
5225;SDS011;2632;51.666;7.146;2024-01-30T05:59:29;17.60;;;10.90;;
5225;SDS011;2632;51.666;7.146;2024-01-30T06:01:56;16.07;;;10.23;;
5225;SDS011;2632;51.666;7.146;2024-01-30T06:04:23;17.20;;;10.40;;
5225;SDS011;2632;51.666;7.146;2024-01-30T06:06:50;16.03;;;11.30;;
5225;SDS011;2632;51.666;7.146;2024-01-30T06:09:17;18.30;;;10.30;;
5225;SDS011;2632;51.666;7.146;2024-01-30T06:11:43;17.47;;;10.10;;
5225;SDS011;2632;51.666;7.146;2024-01-30T06:14:11;17.07;;;10.10;;
5225;SDS011;2632;51.666;7.146;2024-01-30T06:16:37;16.70;;;10.30;;
5225;SDS011;2632;51.666;7.146;2024-01-30T06:19:04;14.63;;;10.50;;
5225;SDS011;2632;51.666;7.146;2024-01-30T06:21:32;17.43;;;10.03;;
5225;SDS011;2632;51.666;7.146;2024-01-30T06:24:02;17.57;;;10.90;;
5225;SDS011;2632;51.666;7.146;2024-01-30T06:26:29;21.07;;;11.93;;
5225;SDS011;2632;51.666;7.146;2024-01-30T06:28:56;21.40;;;11.30;;
5225;SDS011;2632;51.666;7.146;2024-01-30T06:31:23;16.67;;;11.07;;
5225;SDS011;2632;51.666;7.146;2024-01-30T06:33:50;18.90;;;10.37;;
5225;SDS011;2632;51.666;7.146;2024-01-30T06:36:17;18.77;;;10.03;;
5225;SDS011;2632;51.666;7.146;2024-01-30T06:38:44;15.83;;;10.00;;
5225;SDS011;2632;51.666;7.146;2024-01-30T06:41:11;13.33;;;9.40;;
5225;SDS011;2632;51.666;7.146;2024-01-30T06:43:37;16.00;;;10.47;;
5225;SDS011;2632;51.666;7.146;2024-01-30T06:46:04;15.47;;;10.13;;
5225;SDS011;2632;51.666;7.146;2024-01-30T06:48:31;16.70;;;10.57;;
5225;SDS011;2632;51.666;7.146;2024-01-30T06:50:57;16.77;;;9.90;;
5225;SDS011;2632;51.666;7.146;2024-01-30T06:53:24;20.57;;;11.20;;
5225;SDS011;2632;51.666;7.146;2024-01-30T06:55:52;17.80;;;10.90;;
5225;SDS011;2632;51.666;7.146;2024-01-30T06:58:19;20.77;;;11.40;;
5225;SDS011;2632;51.666;7.146;2024-01-30T07:00:46;15.93;;;10.10;;
5225;SDS011;2632;51.666;7.146;2024-01-30T07:03:13;16.17;;;10.67;;
5225;SDS011;2632;51.666;7.146;2024-01-30T07:05:40;18.03;;;11.30;;
5225;SDS011;2632;51.666;7.146;2024-01-30T07:08:07;18.43;;;9.60;;
5225;SDS011;2632;51.666;7.146;2024-01-30T07:10:33;17.43;;;9.37;;
5225;SDS011;2632;51.666;7.146;2024-01-30T07:13:00;16.37;;;9.80;;
5225;SDS011;2632;51.666;7.146;2024-01-30T07:15:27;14.50;;;9.27;;
5225;SDS011;2632;51.666;7.146;2024-01-30T07:17:55;16.03;;;8.77;;
5225;SDS011;2632;51.666;7.146;2024-01-30T07:20:21;18.77;;;9.70;;
5225;SDS011;2632;51.666;7.146;2024-01-30T07:22:48;18.80;;;9.43;;
5225;SDS011;2632;51.666;7.146;2024-01-30T07:25:15;12.83;;;9.00;;
5225;SDS011;2632;51.666;7.146;2024-01-30T07:27:43;12.97;;;9.13;;
5225;SDS011;2632;51.666;7.146;2024-01-30T07:30:10;18.07;;;9.23;;
5225;SDS011;2632;51.666;7.146;2024-01-30T07:32:36;15.37;;;9.47;;
5225;SDS011;2632;51.666;7.146;2024-01-30T07:35:03;14.23;;;8.97;;
5225;SDS011;2632;51.666;7.146;2024-01-30T07:37:34;13.87;;;7.97;;
5225;SDS011;2632;51.666;7.146;2024-01-30T07:40:01;12.57;;;8.60;;
5225;SDS011;2632;51.666;7.146;2024-01-30T07:42:33;12.97;;;8.20;;
5225;SDS011;2632;51.666;7.146;2024-01-30T07:45:00;13.07;;;8.13;;
5225;SDS011;2632;51.666;7.146;2024-01-30T07:47:28;18.33;;;8.80;;
5225;SDS011;2632;51.666;7.146;2024-01-30T07:49:54;14.23;;;8.00;;
5225;SDS011;2632;51.666;7.146;2024-01-30T07:52:21;11.03;;;7.13;;
5225;SDS011;2632;51.666;7.146;2024-01-30T07:54:48;14.43;;;7.50;;
5225;SDS011;2632;51.666;7.146;2024-01-30T07:57:15;12.80;;;8.07;;
5225;SDS011;2632;51.666;7.146;2024-01-30T07:59:43;13.23;;;7.00;;
5225;SDS011;2632;51.666;7.146;2024-01-30T08:02:13;11.60;;;7.57;;
5225;SDS011;2632;51.666;7.146;2024-01-30T08:04:40;14.30;;;7.50;;
5225;SDS011;2632;51.666;7.146;2024-01-30T08:07:07;14.00;;;6.70;;
5225;SDS011;2632;51.666;7.146;2024-01-30T08:09:37;14.77;;;7.10;;
5225;SDS011;2632;51.666;7.146;2024-01-30T08:12:03;10.00;;;6.70;;
5225;SDS011;2632;51.666;7.146;2024-01-30T08:14:31;11.60;;;6.73;;
5225;SDS011;2632;51.666;7.146;2024-01-30T08:16:58;14.33;;;8.13;;
5225;SDS011;2632;51.666;7.146;2024-01-30T08:19:24;15.07;;;7.63;;
5225;SDS011;2632;51.666;7.146;2024-01-30T08:21:51;12.10;;;7.37;;
5225;SDS011;2632;51.666;7.146;2024-01-30T08:24:18;13.37;;;7.00;;
5225;SDS011;2632;51.666;7.146;2024-01-30T08:26:44;15.90;;;7.33;;
5225;SDS011;2632;51.666;7.146;2024-01-30T08:29:11;10.60;;;7.27;;
5225;SDS011;2632;51.666;7.146;2024-01-30T08:31:38;10.70;;;6.60;;
5225;SDS011;2632;51.666;7.146;2024-01-30T08:34:05;12.90;;;7.47;;
5225;SDS011;2632;51.666;7.146;2024-01-30T08:36:31;10.67;;;7.13;;
5225;SDS011;2632;51.666;7.146;2024-01-30T08:38:58;11.07;;;6.57;;
5225;SDS011;2632;51.666;7.146;2024-01-30T08:41:30;13.53;;;7.50;;
5225;SDS011;2632;51.666;7.146;2024-01-30T08:43:56;13.90;;;7.57;;
5225;SDS011;2632;51.666;7.146;2024-01-30T08:46:23;13.50;;;7.00;;
5225;SDS011;2632;51.666;7.146;2024-01-30T08:48:50;11.60;;;7.30;;
5225;SDS011;2632;51.666;7.146;2024-01-30T08:51:17;15.40;;;7.90;;
5225;SDS011;2632;51.666;7.146;2024-01-30T08:53:43;13.00;;;8.07;;
5225;SDS011;2632;51.666;7.146;2024-01-30T08:56:10;10.63;;;7.20;;
5225;SDS011;2632;51.666;7.146;2024-01-30T08:58:37;14.77;;;7.60;;
5225;SDS011;2632;51.666;7.146;2024-01-30T09:01:05;10.40;;;7.10;;
5225;SDS011;2632;51.666;7.146;2024-01-30T09:03:32;10.40;;;7.20;;
5225;SDS011;2632;51.666;7.146;2024-01-30T09:05:59;12.17;;;7.80;;
5225;SDS011;2632;51.666;7.146;2024-01-30T09:08:25;15.70;;;8.27;;
5225;SDS011;2632;51.666;7.146;2024-01-30T09:10:52;13.63;;;7.87;;
5225;SDS011;2632;51.666;7.146;2024-01-30T09:13:19;12.20;;;7.93;;
5225;SDS011;2632;51.666;7.146;2024-01-30T09:15:46;14.00;;;8.40;;
5225;SDS011;2632;51.666;7.146;2024-01-30T09:18:13;14.23;;;7.50;;
5225;SDS011;2632;51.666;7.146;2024-01-30T09:20:39;13.67;;;8.37;;
5225;SDS011;2632;51.666;7.146;2024-01-30T09:23:06;17.10;;;8.17;;
5225;SDS011;2632;51.666;7.146;2024-01-30T09:25:33;11.60;;;7.73;;
5225;SDS011;2632;51.666;7.146;2024-01-30T09:28:00;15.10;;;8.20;;
5225;SDS011;2632;51.666;7.146;2024-01-30T09:30:27;15.07;;;7.90;;
5225;SDS011;2632;51.666;7.146;2024-01-30T09:32:54;13.83;;;8.13;;
5225;SDS011;2632;51.666;7.146;2024-01-30T09:35:21;14.27;;;7.43;;
5225;SDS011;2632;51.666;7.146;2024-01-30T09:37:48;11.00;;;7.17;;
5225;SDS011;2632;51.666;7.146;2024-01-30T09:40:14;15.40;;;7.60;;
5225;SDS011;2632;51.666;7.146;2024-01-30T09:42:48;15.80;;;7.97;;
5225;SDS011;2632;51.666;7.146;2024-01-30T09:45:17;16.13;;;7.70;;
5225;SDS011;2632;51.666;7.146;2024-01-30T09:47:45;9.17;;;6.77;;
5225;SDS011;2632;51.666;7.146;2024-01-30T09:50:13;12.30;;;7.20;;
5225;SDS011;2632;51.666;7.146;2024-01-30T09:52:42;14.90;;;7.13;;
5225;SDS011;2632;51.666;7.146;2024-01-30T09:55:13;14.67;;;6.50;;
5225;SDS011;2632;51.666;7.146;2024-01-30T09:57:41;11.07;;;7.03;;
5225;SDS011;2632;51.666;7.146;2024-01-30T10:00:08;16.30;;;7.00;;
5225;SDS011;2632;51.666;7.146;2024-01-30T10:02:35;11.47;;;7.53;;
5225;SDS011;2632;51.666;7.146;2024-01-30T10:05:02;10.97;;;6.50;;
5225;SDS011;2632;51.666;7.146;2024-01-30T10:07:29;12.20;;;6.50;;
5225;SDS011;2632;51.666;7.146;2024-01-30T10:09:57;14.67;;;7.47;;
5225;SDS011;2632;51.666;7.146;2024-01-30T10:12:25;12.00;;;7.30;;
5225;SDS011;2632;51.666;7.146;2024-01-30T10:14:53;11.80;;;6.73;;
5225;SDS011;2632;51.666;7.146;2024-01-30T10:17:24;13.07;;;6.40;;
5225;SDS011;2632;51.666;7.146;2024-01-30T10:19:59;11.90;;;7.03;;
5225;SDS011;2632;51.666;7.146;2024-01-30T10:22:27;10.70;;;6.00;;
5225;SDS011;2632;51.666;7.146;2024-01-30T10:24:54;10.87;;;6.03;;
5225;SDS011;2632;51.666;7.146;2024-01-30T10:27:27;12.27;;;6.60;;
5225;SDS011;2632;51.666;7.146;2024-01-30T10:29:58;13.93;;;6.40;;
5225;SDS011;2632;51.666;7.146;2024-01-30T10:32:42;15.47;;;6.43;;
5225;SDS011;2632;51.666;7.146;2024-01-30T10:35:09;10.03;;;6.57;;
5225;SDS011;2632;51.666;7.146;2024-01-30T10:37:36;15.27;;;7.17;;
5225;SDS011;2632;51.666;7.146;2024-01-30T10:40:03;10.83;;;6.30;;
5225;SDS011;2632;51.666;7.146;2024-01-30T10:42:33;11.07;;;7.23;;
5225;SDS011;2632;51.666;7.146;2024-01-30T10:45:06;10.53;;;6.40;;
5225;SDS011;2632;51.666;7.146;2024-01-30T10:47:52;11.40;;;6.33;;
5225;SDS011;2632;51.666;7.146;2024-01-30T10:50:23;11.50;;;6.57;;
5225;SDS011;2632;51.666;7.146;2024-01-30T10:52:51;13.60;;;6.10;;
5225;SDS011;2632;51.666;7.146;2024-01-30T10:55:19;14.03;;;7.00;;
5225;SDS011;2632;51.666;7.146;2024-01-30T10:57:49;13.40;;;6.23;;
5225;SDS011;2632;51.666;7.146;2024-01-30T11:00:16;15.30;;;6.37;;
5225;SDS011;2632;51.666;7.146;2024-01-30T11:02:48;13.00;;;6.93;;
5225;SDS011;2632;51.666;7.146;2024-01-30T11:05:20;13.43;;;6.00;;
5225;SDS011;2632;51.666;7.146;2024-01-30T11:07:54;12.53;;;6.63;;
5225;SDS011;2632;51.666;7.146;2024-01-30T11:10:21;11.73;;;5.60;;
5225;SDS011;2632;51.666;7.146;2024-01-30T11:12:51;13.93;;;6.40;;
5225;SDS011;2632;51.666;7.146;2024-01-30T11:15:18;12.23;;;6.57;;
5225;SDS011;2632;51.666;7.146;2024-01-30T11:20:19;11.10;;;6.10;;
5225;SDS011;2632;51.666;7.146;2024-01-30T11:22:53;14.77;;;7.43;;
5225;SDS011;2632;51.666;7.146;2024-01-30T11:25:22;13.20;;;6.93;;
5225;SDS011;2632;51.666;7.146;2024-01-30T11:27:51;14.93;;;7.50;;
5225;SDS011;2632;51.666;7.146;2024-01-30T11:35:31;11.23;;;6.90;;
5225;SDS011;2632;51.666;7.146;2024-01-30T11:38:00;13.13;;;6.50;;
5225;SDS011;2632;51.666;7.146;2024-01-30T11:40:28;16.03;;;7.20;;
5225;SDS011;2632;51.666;7.146;2024-01-30T11:42:56;9.43;;;6.70;;
5225;SDS011;2632;51.666;7.146;2024-01-30T11:45:24;11.73;;;7.30;;
5225;SDS011;2632;51.666;7.146;2024-01-30T11:47:53;12.27;;;7.17;;
5225;SDS011;2632;51.666;7.146;2024-01-30T11:50:20;17.13;;;7.60;;
5225;SDS011;2632;51.666;7.146;2024-01-30T11:52:48;15.30;;;7.80;;
5225;SDS011;2632;51.666;7.146;2024-01-30T11:55:15;14.97;;;8.03;;
5225;SDS011;2632;51.666;7.146;2024-01-30T11:57:42;13.60;;;7.77;;
5225;SDS011;2632;51.666;7.146;2024-01-30T12:00:14;12.90;;;7.53;;
5225;SDS011;2632;51.666;7.146;2024-01-30T12:02:42;11.80;;;7.17;;
5225;SDS011;2632;51.666;7.146;2024-01-30T12:05:09;19.27;;;8.60;;
5225;SDS011;2632;51.666;7.146;2024-01-30T12:07:36;15.57;;;8.40;;
5225;SDS011;2632;51.666;7.146;2024-01-30T12:10:04;13.77;;;7.97;;
5225;SDS011;2632;51.666;7.146;2024-01-30T12:12:31;19.20;;;7.73;;
5225;SDS011;2632;51.666;7.146;2024-01-30T12:14:58;14.17;;;7.77;;
5225;SDS011;2632;51.666;7.146;2024-01-30T12:17:29;13.30;;;7.50;;
5225;SDS011;2632;51.666;7.146;2024-01-30T12:22:36;18.93;;;8.80;;
5225;SDS011;2632;51.666;7.146;2024-01-30T12:25:05;15.27;;;7.50;;
5225;SDS011;2632;51.666;7.146;2024-01-30T12:27:38;18.93;;;7.80;;
5225;SDS011;2632;51.666;7.146;2024-01-30T12:30:08;14.60;;;7.63;;
5225;SDS011;2632;51.666;7.146;2024-01-30T12:32:36;14.50;;;8.33;;
5225;SDS011;2632;51.666;7.146;2024-01-30T12:35:18;15.00;;;7.83;;
5225;SDS011;2632;51.666;7.146;2024-01-30T12:37:47;15.80;;;7.27;;
5225;SDS011;2632;51.666;7.146;2024-01-30T12:40:14;16.27;;;8.10;;
5225;SDS011;2632;51.666;7.146;2024-01-30T12:42:42;15.07;;;8.73;;
5225;SDS011;2632;51.666;7.146;2024-01-30T12:45:09;15.27;;;7.83;;
5225;SDS011;2632;51.666;7.146;2024-01-30T12:47:36;15.93;;;8.40;;
5225;SDS011;2632;51.666;7.146;2024-01-30T12:50:03;15.20;;;7.57;;
5225;SDS011;2632;51.666;7.146;2024-01-30T12:52:30;20.53;;;8.30;;
5225;SDS011;2632;51.666;7.146;2024-01-30T12:54:57;15.13;;;7.70;;
5225;SDS011;2632;51.666;7.146;2024-01-30T12:57:24;11.60;;;7.70;;
5225;SDS011;2632;51.666;7.146;2024-01-30T12:59:51;15.63;;;8.00;;
5225;SDS011;2632;51.666;7.146;2024-01-30T13:02:18;12.40;;;7.80;;
5225;SDS011;2632;51.666;7.146;2024-01-30T13:04:45;12.13;;;8.23;;
5225;SDS011;2632;51.666;7.146;2024-01-30T13:07:15;17.23;;;8.50;;
5225;SDS011;2632;51.666;7.146;2024-01-30T13:09:42;19.73;;;8.97;;
5225;SDS011;2632;51.666;7.146;2024-01-30T13:12:08;18.50;;;8.60;;
5225;SDS011;2632;51.666;7.146;2024-01-30T13:14:35;14.53;;;8.47;;
5225;SDS011;2632;51.666;7.146;2024-01-30T13:17:02;12.30;;;7.67;;
5225;SDS011;2632;51.666;7.146;2024-01-30T13:19:30;14.10;;;7.30;;
5225;SDS011;2632;51.666;7.146;2024-01-30T13:21:57;13.80;;;8.00;;
5225;SDS011;2632;51.666;7.146;2024-01-30T13:24:24;13.63;;;7.87;;
5225;SDS011;2632;51.666;7.146;2024-01-30T13:26:51;19.33;;;7.90;;
5225;SDS011;2632;51.666;7.146;2024-01-30T13:29:18;12.90;;;8.30;;
5225;SDS011;2632;51.666;7.146;2024-01-30T13:31:45;16.07;;;8.90;;
5225;SDS011;2632;51.666;7.146;2024-01-30T13:34:12;13.47;;;8.20;;
5225;SDS011;2632;51.666;7.146;2024-01-30T13:36:40;17.73;;;8.70;;
5225;SDS011;2632;51.666;7.146;2024-01-30T13:39:07;17.07;;;8.20;;
5225;SDS011;2632;51.666;7.146;2024-01-30T13:41:36;18.20;;;8.10;;
5225;SDS011;2632;51.666;7.146;2024-01-30T13:44:03;14.53;;;8.33;;
5225;SDS011;2632;51.666;7.146;2024-01-30T13:46:30;14.53;;;8.70;;
5225;SDS011;2632;51.666;7.146;2024-01-30T13:48:57;16.10;;;8.60;;
5225;SDS011;2632;51.666;7.146;2024-01-30T13:51:24;14.07;;;8.53;;
5225;SDS011;2632;51.666;7.146;2024-01-30T13:53:51;16.33;;;8.43;;
5225;SDS011;2632;51.666;7.146;2024-01-30T13:56:21;16.90;;;8.70;;
5225;SDS011;2632;51.666;7.146;2024-01-30T13:58:48;15.00;;;8.00;;
5225;SDS011;2632;51.666;7.146;2024-01-30T14:01:16;11.70;;;7.87;;
5225;SDS011;2632;51.666;7.146;2024-01-30T14:03:43;14.13;;;8.23;;
5225;SDS011;2632;51.666;7.146;2024-01-30T14:06:10;16.60;;;9.03;;
5225;SDS011;2632;51.666;7.146;2024-01-30T14:08:38;16.67;;;8.80;;
5225;SDS011;2632;51.666;7.146;2024-01-30T14:11:05;14.10;;;8.33;;
5225;SDS011;2632;51.666;7.146;2024-01-30T14:13:31;16.20;;;9.20;;
5225;SDS011;2632;51.666;7.146;2024-01-30T14:15:59;15.10;;;8.60;;
5225;SDS011;2632;51.666;7.146;2024-01-30T14:18:25;15.37;;;8.00;;
5225;SDS011;2632;51.666;7.146;2024-01-30T14:20:52;20.47;;;8.57;;
5225;SDS011;2632;51.666;7.146;2024-01-30T14:23:20;15.27;;;8.57;;
5225;SDS011;2632;51.666;7.146;2024-01-30T14:25:47;16.47;;;8.50;;
5225;SDS011;2632;51.666;7.146;2024-01-30T14:28:15;12.50;;;8.30;;
5225;SDS011;2632;51.666;7.146;2024-01-30T14:30:41;17.13;;;8.20;;
5225;SDS011;2632;51.666;7.146;2024-01-30T14:33:08;21.30;;;12.00;;
5225;SDS011;2632;51.666;7.146;2024-01-30T14:35:35;25.93;;;12.70;;
5225;SDS011;2632;51.666;7.146;2024-01-30T14:38:02;31.10;;;15.13;;
5225;SDS011;2632;51.666;7.146;2024-01-30T14:40:31;19.90;;;11.30;;
5225;SDS011;2632;51.666;7.146;2024-01-30T14:42:57;16.07;;;10.73;;
5225;SDS011;2632;51.666;7.146;2024-01-30T14:45:25;20.20;;;9.30;;
5225;SDS011;2632;51.666;7.146;2024-01-30T14:47:51;14.87;;;9.53;;
5225;SDS011;2632;51.666;7.146;2024-01-30T14:50:19;18.97;;;9.10;;
5225;SDS011;2632;51.666;7.146;2024-01-30T14:52:46;13.90;;;8.83;;
5225;SDS011;2632;51.666;7.146;2024-01-30T14:55:12;16.47;;;8.43;;
5225;SDS011;2632;51.666;7.146;2024-01-30T14:57:39;13.77;;;8.50;;
5225;SDS011;2632;51.666;7.146;2024-01-30T15:00:08;14.40;;;9.23;;
5225;SDS011;2632;51.666;7.146;2024-01-30T15:02:35;15.30;;;8.13;;
5225;SDS011;2632;51.666;7.146;2024-01-30T15:05:02;10.30;;;7.37;;
5225;SDS011;2632;51.666;7.146;2024-01-30T15:07:30;12.80;;;7.23;;
5225;SDS011;2632;51.666;7.146;2024-01-30T15:10:05;15.13;;;7.53;;